TimeEDT,TemperatureF,Dew PointF,Humidity,Sea Level PressureIn,VisibilityMPH,Wind Direction,Wind SpeedMPH,Gust SpeedMPH,PrecipitationIn,Events,Conditions,WindDirDegrees,DateUTC
12:53 AM,68.0,57.9,70,29.85,10.0,WNW,5.8,16.1,N/A,,Mostly Cloudy,300,2013-07-21 04:53:00
1:53 AM,66.9,53.1,61,29.87,10.0,North,12.7,-,N/A,,Mostly Cloudy,360,2013-07-21 05:53:00
2:53 AM,64.0,51.1,63,29.90,10.0,North,11.5,-,N/A,,Clear,360,2013-07-21 06:53:00
3:53 AM,61.0,48.9,64,29.93,10.0,NNW,8.1,-,N/A,,Clear,340,2013-07-21 07:53:00
4:53 AM,59.0,48.9,69,29.94,10.0,NNW,9.2,-,N/A,,Clear,330,2013-07-21 08:53:00
5:53 AM,57.9,48.9,72,29.96,10.0,NNW,8.1,-,N/A,,Partly Cloudy,330,2013-07-21 09:53:00
6:53 AM,60.1,48.9,67,29.98,10.0,NNW,8.1,-,N/A,,Clear,340,2013-07-21 10:53:00
7:53 AM,62.1,48.9,62,30.00,10.0,North,11.5,-,N/A,,Clear,360,2013-07-21 11:53:00
8:53 AM,64.0,48.9,58,30.01,10.0,NNE,6.9,-,N/A,,Clear,20,2013-07-21 12:53:00
9:53 AM,64.9,48.0,54,30.02,10.0,North,6.9,-,N/A,,Clear,350,2013-07-21 13:53:00
10:53 AM,66.0,48.9,54,30.02,10.0,NE,8.1,-,N/A,,Overcast,40,2013-07-21 14:53:00
11:53 AM,66.0,50.0,56,30.02,10.0,ENE,8.1,-,N/A,,Partly Cloudy,60,2013-07-21 15:53:00
12:53 PM,68.0,51.1,55,30.02,10.0,NE,8.1,-,N/A,,Clear,40,2013-07-21 16:53:00
1:53 PM,68.0,52.0,56,30.01,10.0,ENE,8.1,-,N/A,,Clear,60,2013-07-21 17:53:00
2:53 PM,70.0,53.1,55,30.01,10.0,NE,9.2,-,N/A,,Clear,50,2013-07-21 18:53:00
3:53 PM,69.1,52.0,54,30.00,10.0,NE,8.1,-,N/A,,Clear,40,2013-07-21 19:53:00
4:53 PM,70.0,52.0,53,29.99,10.0,NE,8.1,-,N/A,,Clear,50,2013-07-21 20:53:00
5:53 PM,70.0,53.1,55,29.98,10.0,East,6.9,-,N/A,,Clear,90,2013-07-21 21:53:00
6:53 PM,70.0,53.1,55,29.99,10.0,ENE,4.6,-,N/A,,Clear,70,2013-07-21 22:53:00
7:53 PM,69.1,53.1,57,29.99,10.0,ENE,3.5,-,N/A,,Clear,70,2013-07-21 23:53:00
8:53 PM,63.0,53.1,70,29.99,10.0,Calm,Calm,-,N/A,,Clear,0,2013-07-22 00:53:00
9:53 PM,62.1,53.1,72,30.01,10.0,WNW,4.6,-,0.00,,Clear,300,2013-07-22 01:53:00
10:53 PM,59.0,54.0,83,30.02,10.0,West,5.8,-,N/A,,Clear,280,2013-07-22 02:53:00
11:53 PM,57.0,52.0,83,30.04,10.0,West,3.5,-,N/A,,Clear,280,2013-07-22 03:53:00